sensor_id;sensor_type;location;lat;lon;timestamp;pressure;altitude;pressure_sealevel;temperature;humidity
19508;BME280;40157;42.566;27.526;2023-04-10T00:01:56;101202.94;;;9.07;77.75
19508;BME280;40157;42.566;27.526;2023-04-10T00:03:56;101217.13;;;9.16;77.26
19508;BME280;40157;42.566;27.526;2023-04-10T00:05:56;101197.75;;;9.09;76.58
19508;BME280;40157;42.566;27.526;2023-04-10T00:07:57;101202.19;;;9.12;76.35
19508;BME280;40157;42.566;27.526;2023-04-10T00:09:57;101211.06;;;9.17;76.20
19508;BME280;40157;42.566;27.526;2023-04-10T00:11:58;101190.72;;;9.06;75.92
19508;BME280;40157;42.566;27.526;2023-04-10T00:13:58;101187.16;;;9.04;75.54
19508;BME280;40157;42.566;27.526;2023-04-10T00:15:59;101086.06;;;8.46;75.47
19508;BME280;40157;42.566;27.526;2023-04-10T00:18:00;101203.03;;;9.11;75.42
19508;BME280;40157;42.566;27.526;2023-04-10T00:20:00;101182.00;;;9.07;75.00
19508;BME280;40157;42.566;27.526;2023-04-10T00:22:01;101208.44;;;9.17;74.82
19508;BME280;40157;42.566;27.526;2023-04-10T00:24:02;101209.16;;;9.11;74.61
19508;BME280;40157;42.566;27.526;2023-04-10T00:26:04;101192.47;;;9.07;74.33
19508;BME280;40157;42.566;27.526;2023-04-10T00:28:04;101160.63;;;8.92;74.20
19508;BME280;40157;42.566;27.526;2023-04-10T00:30:05;101170.94;;;8.86;73.99
19508;BME280;40157;42.566;27.526;2023-04-10T00:32:06;101163.03;;;8.84;73.98
19508;BME280;40157;42.566;27.526;2023-04-10T00:34:07;101184.13;;;8.91;73.85
19508;BME280;40157;42.566;27.526;2023-04-10T00:36:08;101150.44;;;8.73;73.59
19508;BME280;40157;42.566;27.526;2023-04-10T00:38:08;101195.38;;;8.88;73.26
19508;BME280;40157;42.566;27.526;2023-04-10T00:40:09;101198.84;;;8.87;73.46
19508;BME280;40157;42.566;27.526;2023-04-10T00:42:09;101154.50;;;8.61;73.23
19508;BME280;40157;42.566;27.526;2023-04-10T00:44:10;101190.72;;;8.78;73.24
19508;BME280;40157;42.566;27.526;2023-04-10T00:46:11;101170.38;;;8.69;73.42
19508;BME280;40157;42.566;27.526;2023-04-10T00:48:11;101171.91;;;8.62;73.31
19508;BME280;40157;42.566;27.526;2023-04-10T00:50:12;101170.94;;;8.59;73.35
19508;BME280;40157;42.566;27.526;2023-04-10T00:52:12;101132.66;;;8.33;73.07
19508;BME280;40157;42.566;27.526;2023-04-10T00:54:13;101152.88;;;8.39;73.09
19508;BME280;40157;42.566;27.526;2023-04-10T00:56:13;101144.91;;;8.34;73.28
19508;BME280;40157;42.566;27.526;2023-04-10T00:58:14;101153.66;;;8.37;73.06
19508;BME280;40157;42.566;27.526;2023-04-10T01:00:16;101136.59;;;8.21;73.02
19508;BME280;40157;42.566;27.526;2023-04-10T01:02:16;101173.75;;;8.38;73.24
19508;BME280;40157;42.566;27.526;2023-04-10T01:04:17;101130.28;;;8.14;73.41
19508;BME280;40157;42.566;27.526;2023-04-10T01:06:34;101162.16;;;8.29;73.29
19508;BME280;40157;42.566;27.526;2023-04-10T01:08:51;101127.56;;;8.09;73.35
19508;BME280;40157;42.566;27.526;2023-04-10T01:11:36;101156.72;;;8.23;73.21
19508;BME280;40157;42.566;27.526;2023-04-10T01:15:27;101148.44;;;8.09;73.64
19508;BME280;40157;42.566;27.526;2023-04-10T01:18:01;101152.00;;;8.11;73.76
19508;BME280;40157;42.566;27.526;2023-04-10T01:20:11;101142.13;;;8.03;73.93
19508;BME280;40157;42.566;27.526;2023-04-10T01:22:13;101141.28;;;8.04;73.98
19508;BME280;40157;42.566;27.526;2023-04-10T01:27:00;101148.53;;;8.12;73.99
19508;BME280;40157;42.566;27.526;2023-04-10T01:29:08;101152.88;;;8.12;73.85
19508;BME280;40157;42.566;27.526;2023-04-10T01:31:16;101128.22;;;8.04;73.97
19508;BME280;40157;42.566;27.526;2023-04-10T01:33:19;101142.53;;;8.15;73.47
19508;BME280;40157;42.566;27.526;2023-04-10T01:35:20;101135.63;;;8.17;73.48
19508;BME280;40157;42.566;27.526;2023-04-10T01:37:30;101141.16;;;8.26;73.26
19508;BME280;40157;42.566;27.526;2023-04-10T01:39:35;101127.13;;;8.23;73.11
19508;BME280;40157;42.566;27.526;2023-04-10T01:41:38;101137.03;;;8.33;72.88
19508;BME280;40157;42.566;27.526;2023-04-10T01:43:40;101112.31;;;8.23;72.55
19508;BME280;40157;42.566;27.526;2023-04-10T01:45:43;101144.25;;;8.42;72.36
19508;BME280;40157;42.566;27.526;2023-04-10T01:47:46;101106.44;;;8.30;72.48
19508;BME280;40157;42.566;27.526;2023-04-10T01:49:47;101137.38;;;8.44;72.38
19508;BME280;40157;42.566;27.526;2023-04-10T01:51:50;101134.88;;;8.47;72.00
19508;BME280;40157;42.566;27.526;2023-04-10T01:53:51;101122.31;;;8.37;71.71
19508;BME280;40157;42.566;27.526;2023-04-10T01:55:52;101055.78;;;7.96;71.48
19508;BME280;40157;42.566;27.526;2023-04-10T01:57:53;101100.03;;;8.21;71.58
19508;BME280;40157;42.566;27.526;2023-04-10T01:59:54;101111.56;;;8.27;71.55
19508;BME280;40157;42.566;27.526;2023-04-10T02:01:58;101107.38;;;8.32;72.19
19508;BME280;40157;42.566;27.526;2023-04-10T02:03:59;101122.56;;;8.43;72.32
19508;BME280;40157;42.566;27.526;2023-04-10T02:06:48;101125.44;;;8.52;72.95
19508;BME280;40157;42.566;27.526;2023-04-10T02:08:58;101121.56;;;8.41;73.55
19508;BME280;40157;42.566;27.526;2023-04-10T02:11:15;101119.59;;;8.33;73.84
19508;BME280;40157;42.566;27.526;2023-04-10T02:13:20;101088.22;;;8.05;74.72
19508;BME280;40157;42.566;27.526;2023-04-10T02:15:23;101118.19;;;8.16;75.20
19508;BME280;40157;42.566;27.526;2023-04-10T02:17:28;101121.84;;;8.21;75.28
19508;BME280;40157;42.566;27.526;2023-04-10T02:19:30;101113.16;;;8.22;75.27
19508;BME280;40157;42.566;27.526;2023-04-10T02:21:32;101102.81;;;8.25;75.78
19508;BME280;40157;42.566;27.526;2023-04-10T02:23:34;101115.22;;;8.32;75.61
19508;BME280;40157;42.566;27.526;2023-04-10T02:25:35;101109.94;;;8.31;75.49
19508;BME280;40157;42.566;27.526;2023-04-10T02:27:36;101089.03;;;8.31;75.27
19508;BME280;40157;42.566;27.526;2023-04-10T02:29:37;101117.66;;;8.54;75.02
19508;BME280;40157;42.566;27.526;2023-04-10T02:31:39;101110.78;;;8.57;74.87
19508;BME280;40157;42.566;27.526;2023-04-10T02:33:39;101105.66;;;8.60;74.82
19508;BME280;40157;42.566;27.526;2023-04-10T02:35:40;101101.41;;;8.64;74.72
19508;BME280;40157;42.566;27.526;2023-04-10T02:37:41;101095.19;;;8.60;74.51
19508;BME280;40157;42.566;27.526;2023-04-10T02:39:42;101069.78;;;8.55;73.84
19508;BME280;40157;42.566;27.526;2023-04-10T02:41:42;101115.97;;;8.84;73.26
19508;BME280;40157;42.566;27.526;2023-04-10T02:43:43;101097.63;;;8.83;73.00
19508;BME280;40157;42.566;27.526;2023-04-10T02:45:43;101087.16;;;8.83;72.82
19508;BME280;40157;42.566;27.526;2023-04-10T02:47:44;101105.97;;;9.00;72.57
19508;BME280;40157;42.566;27.526;2023-04-10T02:49:44;101043.03;;;8.63;71.67
19508;BME280;40157;42.566;27.526;2023-04-10T02:51:45;101086.69;;;8.96;71.30
19508;BME280;40157;42.566;27.526;2023-04-10T02:53:46;101089.53;;;9.05;71.13
19508;BME280;40157;42.566;27.526;2023-04-10T02:55:47;101082.47;;;9.01;70.01
19508;BME280;40157;42.566;27.526;2023-04-10T02:57:48;101073.00;;;9.06;69.64
19508;BME280;40157;42.566;27.526;2023-04-10T02:59:51;101048.28;;;8.95;69.26
19508;BME280;40157;42.566;27.526;2023-04-10T03:01:51;101091.97;;;9.30;68.71
19508;BME280;40157;42.566;27.526;2023-04-10T03:03:52;101099.25;;;9.41;68.01
19508;BME280;40157;42.566;27.526;2023-04-10T03:05:52;101079.00;;;9.34;67.47
19508;BME280;40157;42.566;27.526;2023-04-10T03:07:53;101083.47;;;9.38;67.20
19508;BME280;40157;42.566;27.526;2023-04-10T03:09:53;101087.19;;;9.47;66.86
19508;BME280;40157;42.566;27.526;2023-04-10T03:11:54;101046.47;;;9.24;66.68
19508;BME280;40157;42.566;27.526;2023-04-10T03:13:55;101087.34;;;9.53;67.05
19508;BME280;40157;42.566;27.526;2023-04-10T03:15:57;101058.75;;;9.27;67.10
19508;BME280;40157;42.566;27.526;2023-04-10T03:17:57;101097.97;;;9.59;66.84
19508;BME280;40157;42.566;27.526;2023-04-10T03:19:58;101075.00;;;9.49;66.72
19508;BME280;40157;42.566;27.526;2023-04-10T03:21:58;101067.03;;;9.44;66.51
19508;BME280;40157;42.566;27.526;2023-04-10T03:23:59;101105.94;;;9.63;66.52
19508;BME280;40157;42.566;27.526;2023-04-10T03:26:00;101093.63;;;9.59;66.75
19508;BME280;40157;42.566;27.526;2023-04-10T03:28:01;101127.31;;;9.80;66.47
19508;BME280;40157;42.566;27.526;2023-04-10T03:30:01;101128.31;;;9.86;66.67
19508;BME280;40157;42.566;27.526;2023-04-10T03:32:02;101105.38;;;9.75;66.66
19508;BME280;40157;42.566;27.526;2023-04-10T03:34:02;101128.47;;;9.92;66.39
19508;BME280;40157;42.566;27.526;2023-04-10T03:36:03;101117.84;;;9.86;65.98
19508;BME280;40157;42.566;27.526;2023-04-10T03:38:04;101113.59;;;9.91;65.97
19508;BME280;40157;42.566;27.526;2023-04-10T03:40:06;101110.97;;;9.91;65.63
19508;BME280;40157;42.566;27.526;2023-04-10T03:42:07;101100.47;;;9.88;65.54
19508;BME280;40157;42.566;27.526;2023-04-10T03:44:07;101116.53;;;10.03;65.75
19508;BME280;40157;42.566;27.526;2023-04-10T03:46:07;101119.19;;;10.05;65.65
19508;BME280;40157;42.566;27.526;2023-04-10T03:48:08;101120.25;;;10.11;65.13
19508;BME280;40157;42.566;27.526;2023-04-10T03:50:09;101101.69;;;10.04;65.15
19508;BME280;40157;42.566;27.526;2023-04-10T03:52:09;101126.47;;;10.16;65.27
19508;BME280;40157;42.566;27.526;2023-04-10T03:54:10;101076.25;;;9.98;65.17
19508;BME280;40157;42.566;27.526;2023-04-10T03:56:10;101106.34;;;10.15;65.07
19508;BME280;40157;42.566;27.526;2023-04-10T03:58:10;101120.56;;;10.25;64.76
19508;BME280;40157;42.566;27.526;2023-04-10T04:00:13;101107.47;;;10.25;64.26
19508;BME280;40157;42.566;27.526;2023-04-10T04:02:14;101095.16;;;10.21;64.51
19508;BME280;40157;42.566;27.526;2023-04-10T04:04:14;101085.38;;;10.15;64.74
19508;BME280;40157;42.566;27.526;2023-04-10T04:06:15;101119.97;;;10.35;64.96
19508;BME280;40157;42.566;27.526;2023-04-10T04:08:15;101121.75;;;10.36;64.99
19508;BME280;40157;42.566;27.526;2023-04-10T04:10:16;101108.53;;;10.32;64.74
19508;BME280;40157;42.566;27.526;2023-04-10T04:12:16;101090.88;;;10.25;64.94
19508;BME280;40157;42.566;27.526;2023-04-10T04:14:17;101113.03;;;10.38;64.90
19508;BME280;40157;42.566;27.526;2023-04-10T04:16:17;101101.53;;;10.32;64.60
19508;BME280;40157;42.566;27.526;2023-04-10T04:18:17;101080.38;;;10.25;64.43
19508;BME280;40157;42.566;27.526;2023-04-10T04:20:18;101102.03;;;10.52;71.27
19508;BME280;40157;42.566;27.526;2023-04-10T04:22:19;101101.38;;;10.63;72.32
19508;BME280;40157;42.566;27.526;2023-04-10T04:24:20;101102.34;;;10.68;70.84
19508;BME280;40157;42.566;27.526;2023-04-10T04:26:21;101109.53;;;10.77;70.00
19508;BME280;40157;42.566;27.526;2023-04-10T04:28:22;101099.06;;;10.78;68.49
19508;BME280;40157;42.566;27.526;2023-04-10T04:30:22;101108.06;;;10.89;67.52
19508;BME280;40157;42.566;27.526;2023-04-10T04:32:23;101088.81;;;10.90;66.58
19508;BME280;40157;42.566;27.526;2023-04-10T04:34:23;101092.50;;;10.99;65.65
19508;BME280;40157;42.566;27.526;2023-04-10T04:36:23;101103.25;;;11.11;64.35
19508;BME280;40157;42.566;27.526;2023-04-10T04:38:24;101119.09;;;11.17;62.68
19508;BME280;40157;42.566;27.526;2023-04-10T04:40:25;101086.56;;;11.07;61.50
19508;BME280;40157;42.566;27.526;2023-04-10T04:42:25;101073.31;;;11.01;60.92
19508;BME280;40157;42.566;27.526;2023-04-10T04:44:26;101091.03;;;11.13;60.87
19508;BME280;40157;42.566;27.526;2023-04-10T04:46:27;101122.75;;;11.25;60.90
19508;BME280;40157;42.566;27.526;2023-04-10T04:48:27;101115.78;;;11.26;61.12
19508;BME280;40157;42.566;27.526;2023-04-10T04:50:28;101103.38;;;11.19;61.06
19508;BME280;40157;42.566;27.526;2023-04-10T04:52:28;101088.31;;;11.08;61.36
19508;BME280;40157;42.566;27.526;2023-04-10T04:54:28;101093.72;;;11.16;61.84
19508;BME280;40157;42.566;27.526;2023-04-10T04:56:29;101090.19;;;11.16;62.87
19508;BME280;40157;42.566;27.526;2023-04-10T04:58:29;101109.72;;;11.30;63.96
19508;BME280;40157;42.566;27.526;2023-04-10T05:00:30;101087.81;;;11.26;63.97
19508;BME280;40157;42.566;27.526;2023-04-10T05:02:30;101079.75;;;11.19;64.54
19508;BME280;40157;42.566;27.526;2023-04-10T05:04:31;101125.78;;;11.45;65.02
19508;BME280;40157;42.566;27.526;2023-04-10T05:06:31;101116.19;;;11.46;65.16
19508;BME280;40157;42.566;27.526;2023-04-10T05:08:32;101114.47;;;11.48;65.46
19508;BME280;40157;42.566;27.526;2023-04-10T05:10:32;101120.81;;;11.59;65.74
19508;BME280;40157;42.566;27.526;2023-04-10T05:12:33;101118.25;;;11.65;66.07
19508;BME280;40157;42.566;27.526;2023-04-10T05:14:33;101123.63;;;11.72;65.76
19508;BME280;40157;42.566;27.526;2023-04-10T05:16:34;101131.53;;;11.73;65.59
19508;BME280;40157;42.566;27.526;2023-04-10T05:18:34;101120.91;;;11.67;65.85
19508;BME280;40157;42.566;27.526;2023-04-10T05:20:35;101129.03;;;11.79;66.17
19508;BME280;40157;42.566;27.526;2023-04-10T05:22:36;101070.56;;;11.41;66.60
19508;BME280;40157;42.566;27.526;2023-04-10T05:24:36;101112.13;;;11.65;67.43
19508;BME280;40157;42.566;27.526;2023-04-10T05:26:36;101117.56;;;11.74;68.26
19508;BME280;40157;42.566;27.526;2023-04-10T05:28:37;101114.84;;;11.70;69.03
19508;BME280;40157;42.566;27.526;2023-04-10T05:30:37;101080.38;;;11.51;70.05
19508;BME280;40157;42.566;27.526;2023-04-10T05:32:38;101134.34;;;11.82;70.72
19508;BME280;40157;42.566;27.526;2023-04-10T05:34:38;101119.34;;;11.77;71.07
19508;BME280;40157;42.566;27.526;2023-04-10T05:36:39;101124.47;;;11.69;71.75
19508;BME280;40157;42.566;27.526;2023-04-10T05:38:39;101089.00;;;11.45;71.97
19508;BME280;40157;42.566;27.526;2023-04-10T05:40:44;101123.50;;;11.62;72.48
19508;BME280;40157;42.566;27.526;2023-04-10T05:42:44;101124.31;;;11.60;73.04
19508;BME280;40157;42.566;27.526;2023-04-10T05:44:45;101130.44;;;11.60;73.41
19508;BME280;40157;42.566;27.526;2023-04-10T05:46:45;101114.47;;;11.48;73.75
19508;BME280;40157;42.566;27.526;2023-04-10T05:48:46;101133.81;;;11.53;73.09
19508;BME280;40157;42.566;27.526;2023-04-10T05:50:46;101105.50;;;11.37;73.18
19508;BME280;40157;42.566;27.526;2023-04-10T05:52:47;101109.94;;;11.39;73.68
19508;BME280;40157;42.566;27.526;2023-04-10T05:54:47;101098.34;;;11.29;72.37
19508;BME280;40157;42.566;27.526;2023-04-10T05:56:48;101048.69;;;10.95;72.61
19508;BME280;40157;42.566;27.526;2023-04-10T05:58:48;101117.50;;;11.25;72.56
19508;BME280;40157;42.566;27.526;2023-04-10T06:00:49;101110.59;;;11.27;72.74
19508;BME280;40157;42.566;27.526;2023-04-10T06:02:49;101098.06;;;11.14;72.98
19508;BME280;40157;42.566;27.526;2023-04-10T06:04:50;101081.31;;;11.07;72.87
19508;BME280;40157;42.566;27.526;2023-04-10T06:06:50;101115.69;;;11.21;72.39
19508;BME280;40157;42.566;27.526;2023-04-10T06:08:51;101103.47;;;11.23;73.14
19508;BME280;40157;42.566;27.526;2023-04-10T06:10:51;101122.88;;;11.32;73.66
19508;BME280;40157;42.566;27.526;2023-04-10T06:12:52;101059.19;;;10.95;73.17
19508;BME280;40157;42.566;27.526;2023-04-10T06:14:52;101114.03;;;11.26;72.02
19508;BME280;40157;42.566;27.526;2023-04-10T06:16:53;101111.19;;;11.16;71.24
19508;BME280;40157;42.566;27.526;2023-04-10T06:18:53;101128.88;;;11.24;71.26
19508;BME280;40157;42.566;27.526;2023-04-10T06:20:54;101117.31;;;11.15;71.61
19508;BME280;40157;42.566;27.526;2023-04-10T06:22:58;101113.75;;;11.11;72.23
19508;BME280;40157;42.566;27.526;2023-04-10T06:24:58;101101.16;;;10.95;70.41
19508;BME280;40157;42.566;27.526;2023-04-10T06:26:59;101101.34;;;11.04;71.67
19508;BME280;40157;42.566;27.526;2023-04-10T06:28:59;101136.69;;;11.21;72.06
19508;BME280;40157;42.566;27.526;2023-04-10T06:31:00;101126.06;;;11.15;71.04
19508;BME280;40157;42.566;27.526;2023-04-10T06:33:03;101136.84;;;11.30;70.80
19508;BME280;40157;42.566;27.526;2023-04-10T06:35:03;101132.34;;;11.23;71.17
19508;BME280;40157;42.566;27.526;2023-04-10T06:37:04;101127.09;;;11.23;71.06
19508;BME280;40157;42.566;27.526;2023-04-10T06:39:05;101105.06;;;11.15;70.57
19508;BME280;40157;42.566;27.526;2023-04-10T06:41:05;101094.59;;;11.17;70.96
19508;BME280;40157;42.566;27.526;2023-04-10T06:43:06;101049.38;;;10.84;70.27
19508;BME280;40157;42.566;27.526;2023-04-10T06:45:07;101087.44;;;11.08;70.44
19508;BME280;40157;42.566;27.526;2023-04-10T06:47:08;101122.88;;;11.32;70.55
19508;BME280;40157;42.566;27.526;2023-04-10T06:49:09;101114.03;;;11.26;70.54
19508;BME280;40157;42.566;27.526;2023-04-10T06:51:09;101108.72;;;11.23;70.61
19508;BME280;40157;42.566;27.526;2023-04-10T06:53:10;101094.69;;;11.21;70.65
19508;BME280;40157;42.566;27.526;2023-04-10T06:55:10;101024.06;;;10.86;70.68
19508;BME280;40157;42.566;27.526;2023-04-10T06:57:14;101061.06;;;11.02;69.85
19508;BME280;40157;42.566;27.526;2023-04-10T06:59:15;101124.78;;;11.39;70.30
19508;BME280;40157;42.566;27.526;2023-04-10T07:01:15;101079.66;;;11.13;70.64
19508;BME280;40157;42.566;27.526;2023-04-10T07:03:16;101105.50;;;11.37;70.36
19508;BME280;40157;42.566;27.526;2023-04-10T07:05:17;101119.66;;;11.45;69.32
19508;BME280;40157;42.566;27.526;2023-04-10T07:07:17;101126.69;;;11.46;69.23
19508;BME280;40157;42.566;27.526;2023-04-10T07:09:18;101126.69;;;11.46;68.25
19508;BME280;40157;42.566;27.526;2023-04-10T07:11:19;101104.63;;;11.36;68.48
19508;BME280;40157;42.566;27.526;2023-04-10T07:13:19;101108.25;;;11.43;68.62
19508;BME280;40157;42.566;27.526;2023-04-10T07:15:20;101120.56;;;11.47;67.25
19508;BME280;40157;42.566;27.526;2023-04-10T07:17:21;101116.28;;;11.52;67.73
19508;BME280;40157;42.566;27.526;2023-04-10T07:19:21;101116.25;;;11.51;68.06
19508;BME280;40157;42.566;27.526;2023-04-10T07:21:21;101071.22;;;11.27;68.32
19508;BME280;40157;42.566;27.526;2023-04-10T07:23:22;101090.84;;;11.50;68.43
19508;BME280;40157;42.566;27.526;2023-04-10T07:25:22;101096.97;;;11.50;68.15
19508;BME280;40157;42.566;27.526;2023-04-10T07:27:23;101124.56;;;11.75;68.49
19508;BME280;40157;42.566;27.526;2023-04-10T07:29:24;101131.63;;;11.78;66.82
19508;BME280;40157;42.566;27.526;2023-04-10T07:31:24;101075.84;;;11.44;66.25
19508;BME280;40157;42.566;27.526;2023-04-10T07:33:24;101120.13;;;11.71;66.66
19508;BME280;40157;42.566;27.526;2023-04-10T07:35:26;101111.31;;;11.68;66.11
19508;BME280;40157;42.566;27.526;2023-04-10T07:37:26;101130.81;;;11.82;66.80
19508;BME280;40157;42.566;27.526;2023-04-10T07:39:27;101107.81;;;11.69;66.86
19508;BME280;40157;42.566;27.526;2023-04-10T07:41:27;101127.41;;;11.86;67.23
19508;BME280;40157;42.566;27.526;2023-04-10T07:43:28;101069.97;;;11.56;66.99
19508;BME280;40157;42.566;27.526;2023-04-10T07:45:28;101065.59;;;11.56;66.22
19508;BME280;40157;42.566;27.526;2023-04-10T07:47:29;101073.72;;;11.72;66.45
19508;BME280;40157;42.566;27.526;2023-04-10T07:49:29;101091.38;;;11.80;66.12
19508;BME280;40157;42.566;27.526;2023-04-10T07:51:30;101081.84;;;11.87;66.35
19508;BME280;40157;42.566;27.526;2023-04-10T07:53:30;101105.72;;;11.98;65.69
19508;BME280;40157;42.566;27.526;2023-04-10T07:55:31;101097.91;;;12.01;66.07
19508;BME280;40157;42.566;27.526;2023-04-10T07:57:31;101095.28;;;12.01;64.51
19508;BME280;40157;42.566;27.526;2023-04-10T07:59:32;101085.63;;;12.00;65.19
19508;BME280;40157;42.566;27.526;2023-04-10T08:01:32;101102.31;;;12.03;64.47
19508;BME280;40157;42.566;27.526;2023-04-10T08:03:37;101111.22;;;12.12;64.19
19508;BME280;40157;42.566;27.526;2023-04-10T08:05:38;101099.84;;;12.13;64.75
19508;BME280;40157;42.566;27.526;2023-04-10T08:07:38;101091.84;;;12.07;64.44
19508;BME280;40157;42.566;27.526;2023-04-10T08:09:39;101095.50;;;12.16;64.26
19508;BME280;40157;42.566;27.526;2023-04-10T08:11:40;101103.38;;;12.15;64.27
19508;BME280;40157;42.566;27.526;2023-04-10T08:13:40;101066.16;;;11.90;63.77
19508;BME280;40157;42.566;27.526;2023-04-10T08:15:40;101105.94;;;12.12;63.64
19508;BME280;40157;42.566;27.526;2023-04-10T08:17:41;101100.59;;;12.07;63.55
19508;BME280;40157;42.566;27.526;2023-04-10T08:19:41;101083.91;;;12.03;63.86
19508;BME280;40157;42.566;27.526;2023-04-10T08:21:42;101099.84;;;12.13;64.42
19508;BME280;40157;42.566;27.526;2023-04-10T08:23:42;101084.88;;;12.09;64.31
19508;BME280;40157;42.566;27.526;2023-04-10T08:25:45;101097.22;;;12.13;63.46
19508;BME280;40157;42.566;27.526;2023-04-10T08:27:45;101082.13;;;11.99;63.57
19508;BME280;40157;42.566;27.526;2023-04-10T08:29:46;101105.19;;;12.19;63.38
19508;BME280;40157;42.566;27.526;2023-04-10T08:31:46;101103.47;;;12.21;63.47
19508;BME280;40157;42.566;27.526;2023-04-10T08:33:47;101100.81;;;12.19;64.31
19508;BME280;40157;42.566;27.526;2023-04-10T08:35:48;101101.75;;;12.23;63.60
19508;BME280;40157;42.566;27.526;2023-04-10T08:37:48;101007.25;;;11.74;63.25
19508;BME280;40157;42.566;27.526;2023-04-10T08:39:48;101120.25;;;12.29;62.44
19508;BME280;40157;42.566;27.526;2023-04-10T08:41:49;101097.28;;;12.17;62.49
19508;BME280;40157;42.566;27.526;2023-04-10T08:43:50;101070.97;;;12.16;62.08
19508;BME280;40157;42.566;27.526;2023-04-10T08:45:51;101081.63;;;12.25;61.45
19508;BME280;40157;42.566;27.526;2023-04-10T08:47:56;100993.22;;;11.74;61.31
19508;BME280;40157;42.566;27.526;2023-04-10T08:50:00;101094.94;;;12.36;61.81
19508;BME280;40157;42.566;27.526;2023-04-10T08:52:06;101035.75;;;12.05;62.47
19508;BME280;40157;42.566;27.526;2023-04-10T08:54:13;101077.41;;;12.36;62.43
19508;BME280;40157;42.566;27.526;2023-04-10T08:56:15;101088.81;;;12.38;61.50
19508;BME280;40157;42.566;27.526;2023-04-10T08:58:16;101061.59;;;12.33;61.73
19508;BME280;40157;42.566;27.526;2023-04-10T09:00:17;101085.44;;;12.46;61.89
19508;BME280;40157;42.566;27.526;2023-04-10T09:02:18;101074.88;;;12.43;60.87
19508;BME280;40157;42.566;27.526;2023-04-10T09:04:19;101071.31;;;12.40;60.46
19508;BME280;40157;42.566;27.526;2023-04-10T09:06:20;101074.91;;;12.47;60.76
19508;BME280;40157;42.566;27.526;2023-04-10T09:08:20;101059.94;;;12.42;61.61
19508;BME280;40157;42.566;27.526;2023-04-10T09:10:21;101079.41;;;12.53;60.88
19508;BME280;40157;42.566;27.526;2023-04-10T09:12:22;101076.78;;;12.53;61.00
19508;BME280;40157;42.566;27.526;2023-04-10T09:14:24;101067.19;;;12.58;61.09
19508;BME280;40157;42.566;27.526;2023-04-10T09:16:28;101050.34;;;12.45;59.45
19508;BME280;40157;42.566;27.526;2023-04-10T09:18:55;101007.16;;;12.26;59.68
19508;BME280;40157;42.566;27.526;2023-04-10T09:21:05;101055.69;;;12.50;58.99
19508;BME280;40157;42.566;27.526;2023-04-10T09:23:32;101074.22;;;12.61;59.65
19508;BME280;40157;42.566;27.526;2023-04-10T09:25:36;101063.72;;;12.62;59.07
19508;BME280;40157;42.566;27.526;2023-04-10T09:27:40;101034.59;;;12.47;59.60
19508;BME280;40157;42.566;27.526;2023-04-10T09:29:45;101058.47;;;12.62;58.90
19508;BME280;40157;42.566;27.526;2023-04-10T09:31:49;101044.38;;;12.57;58.98
19508;BME280;40157;42.566;27.526;2023-04-10T09:34:06;101040.91;;;12.59;58.52
19508;BME280;40157;42.566;27.526;2023-04-10T09:36:12;101048.84;;;12.63;57.99
19508;BME280;40157;42.566;27.526;2023-04-10T09:38:14;101053.28;;;12.68;57.28
19508;BME280;40157;42.566;27.526;2023-04-10T09:40:21;101018.88;;;12.51;56.88
19508;BME280;40157;42.566;27.526;2023-04-10T09:42:35;101052.47;;;12.71;56.39
19508;BME280;40157;42.566;27.526;2023-04-10T09:44:40;101033.97;;;12.66;56.30
19508;BME280;40157;42.566;27.526;2023-04-10T09:46:40;101030.47;;;12.67;57.42
19508;BME280;40157;42.566;27.526;2023-04-10T09:48:53;101032.38;;;12.77;57.35
19508;BME280;40157;42.566;27.526;2023-04-10T09:50:56;101018.25;;;12.69;57.42
19508;BME280;40157;42.566;27.526;2023-04-10T09:52:56;101020.09;;;12.78;58.33
19508;BME280;40157;42.566;27.526;2023-04-10T09:54:58;101001.63;;;12.75;57.91
19508;BME280;40157;42.566;27.526;2023-04-10T09:57:00;101023.78;;;12.94;57.75
19508;BME280;40157;42.566;27.526;2023-04-10T09:59:01;101035.25;;;13.02;56.51
19508;BME280;40157;42.566;27.526;2023-04-10T10:01:04;101037.03;;;13.02;56.82
19508;BME280;40157;42.566;27.526;2023-04-10T10:03:07;101019.44;;;12.98;56.74
19508;BME280;40157;42.566;27.526;2023-04-10T10:05:07;101036.22;;;13.10;56.25
19508;BME280;40157;42.566;27.526;2023-04-10T10:07:09;101015.09;;;13.03;57.39
19508;BME280;40157;42.566;27.526;2023-04-10T10:09:09;101001.88;;;12.96;55.98
19508;BME280;40157;42.566;27.526;2023-04-10T10:11:12;100983.34;;;12.89;56.31
19508;BME280;40157;42.566;27.526;2023-04-10T10:13:51;101031.94;;;13.16;55.84
19508;BME280;40157;42.566;27.526;2023-04-10T10:18:31;101036.25;;;13.13;55.19
19508;BME280;40157;42.566;27.526;2023-04-10T10:20:35;101027.47;;;13.10;55.47
19508;BME280;40157;42.566;27.526;2023-04-10T10:22:38;101038.13;;;13.21;56.45
19508;BME280;40157;42.566;27.526;2023-04-10T10:24:45;101029.28;;;13.16;55.98
19508;BME280;40157;42.566;27.526;2023-04-10T10:26:46;101028.41;;;13.17;55.31
19508;BME280;40157;42.566;27.526;2023-04-10T10:28:50;101035.50;;;13.25;55.91
19508;BME280;40157;42.566;27.526;2023-04-10T10:30:52;101019.69;;;13.24;56.83
19508;BME280;40157;42.566;27.526;2023-04-10T10:32:54;101000.34;;;13.16;56.60
19508;BME280;40157;42.566;27.526;2023-04-10T10:34:56;101021.44;;;13.23;56.42
19508;BME280;40157;42.566;27.526;2023-04-10T10:36:57;100993.31;;;13.16;55.73
19508;BME280;40157;42.566;27.526;2023-04-10T10:39:14;101003.91;;;13.25;56.45
19508;BME280;40157;42.566;27.526;2023-04-10T10:41:24;100976.63;;;13.16;56.20